Time;durP1;ratioP1;P1;durP2;ratioP2;P2;SDS_P1;SDS_P2;PMS_P1;PMS_P2;Temp;Humidity;BMP_temperature;BMP_pressure;BME280_temperature;BME280_humidity;BME280_pressure;Samples;Min_cycle;Max_cycle;Signal;HPM_P1;HPM_P2
2020/12/13 00:06:05;;;;;;;12.82;11.52;;;;;;;;;;4143057;34;20093;-50
2020/12/13 00:08:31;;;;;;;13.38;11.98;;;;;;;;;;4148843;34;20558;-50
2020/12/13 00:10:57;;;;;;;12.25;11.02;;;;;;;;;;4138321;34;20108;-51
2020/12/13 00:13:26;;;;;;;12.50;11.27;;;;;;;;;;4144150;34;20115;-48
2020/12/13 00:15:51;;;;;;;13.80;12.15;;;;;;;;;;4151749;34;20186;-48
2020/12/13 00:18:17;;;;;;;12.45;11.20;;;;;;;;;;4151499;34;20130;-51
2020/12/13 00:20:43;;;;;;;13.00;11.60;;;;;;;;;;4151453;34;20130;-48
2020/12/13 00:23:09;;;;;;;12.37;11.07;;;;;;;;;;4138458;34;20530;-49
2020/12/13 00:25:35;;;;;;;13.05;11.38;;;;;;;;;;4137997;34;20119;-51
2020/12/13 00:28:01;;;;;;;11.57;10.45;;;;;;;;;;4125525;34;20528;-48
2020/12/13 00:30:27;;;;;;;12.80;10.98;;;;;;;;;;4137896;34;20126;-49
2020/12/13 00:32:53;;;;;;;12.43;10.63;;;;;;;;;;4137941;34;20203;-51
2020/12/13 00:35:19;;;;;;;11.95;10.75;;;;;;;;;;4137843;34;20226;-50
2020/12/13 00:37:45;;;;;;;12.20;11.00;;;;;;;;;;4137883;34;20131;-49
2020/12/13 00:40:10;;;;;;;12.10;10.90;;;;;;;;;;4150378;34;20127;-49
2020/12/13 00:42:36;;;;;;;10.85;9.77;;;;;;;;;;4151336;34;20535;-48
2020/12/13 00:45:02;;;;;;;11.68;10.07;;;;;;;;;;4151237;34;20191;-50
2020/12/13 00:47:28;;;;;;;12.07;10.88;;;;;;;;;;4138704;34;20088;-49
2020/12/13 00:49:54;;;;;;;13.35;11.12;;;;;;;;;;4151585;34;20203;-49
2020/12/13 00:52:20;;;;;;;13.05;11.65;;;;;;;;;;4151278;34;20154;-51
2020/12/13 00:54:46;;;;;;;12.65;10.55;;;;;;;;;;4151286;34;20138;-52
2020/12/13 00:57:12;;;;;;;15.13;11.70;;;;;;;;;;4151336;34;20119;-51
2020/12/13 00:59:37;;;;;;;13.98;12.50;;;;;;;;;;4151112;34;20546;-53
2020/12/13 01:02:05;;;;;;;13.90;12.27;;;;;;;;;;4151258;34;20096;-53
2020/12/13 01:04:32;;;;;;;14.52;13.13;;;;;;;;;;4150831;34;20203;-52
2020/12/13 01:07:03;;;;;;;15.02;13.45;;;;;;;;;;4151128;34;20190;-52
2020/12/13 01:09:29;;;;;;;15.25;13.48;;;;;;;;;;4151377;34;20122;-52
2020/12/13 01:11:55;;;;;;;13.43;12.07;;;;;;;;;;4150292;34;20110;-52
2020/12/13 01:14:21;;;;;;;14.20;12.80;;;;;;;;;;4150944;34;20557;-50
2020/12/13 01:16:46;;;;;;;15.05;13.45;;;;;;;;;;4151067;34;20115;-52
2020/12/13 01:19:12;;;;;;;13.77;12.30;;;;;;;;;;4150815;34;20119;-49
2020/12/13 01:21:38;;;;;;;13.48;12.13;;;;;;;;;;4151250;34;20103;-52
2020/12/13 01:24:04;;;;;;;14.10;12.35;;;;;;;;;;4150991;34;20551;-51
2020/12/13 01:26:30;;;;;;;15.20;12.23;;;;;;;;;;4150963;34;20240;-55
2020/12/13 01:28:56;;;;;;;13.25;11.95;;;;;;;;;;4151194;34;20563;-50
2020/12/13 01:31:22;;;;;;;13.05;11.65;;;;;;;;;;4151028;34;20125;-51
2020/12/13 01:33:49;;;;;;;12.15;10.95;;;;;;;;;;4150782;34;20130;-53
2020/12/13 01:36:19;;;;;;;13.90;12.40;;;;;;;;;;4150899;34;20107;-50
2020/12/13 01:38:45;;;;;;;13.38;11.95;;;;;;;;;;4150774;34;20569;-50
2020/12/13 01:41:11;;;;;;;15.30;13.68;;;;;;;;;;4150845;34;20130;-53
2020/12/13 01:43:37;;;;;;;15.40;13.15;;;;;;;;;;4150879;34;20270;-52
2020/12/13 01:46:04;;;;;;;14.95;13.45;;;;;;;;;;4150853;34;20235;-52
2020/12/13 01:48:30;;;;;;;15.68;13.95;;;;;;;;;;4150824;34;20126;-49
2020/12/13 01:53:27;;;;;;;14.57;12.80;;;;;;;;;;4150779;34;20147;-49
2020/12/13 01:55:56;;;;;;;15.80;14.10;;;;;;;;;;4138446;34;20193;-49
2020/12/13 01:58:52;;;;;;;14.13;12.70;;;;;;;;;;4150702;34;20483;-51
2020/12/13 02:01:17;;;;;;;13.45;12.05;;;;;;;;;;4137756;34;20119;-48
2020/12/13 02:03:48;;;;;;;12.60;11.30;;;;;;;;;;4150539;34;20194;-49
2020/12/13 02:06:17;;;;;;;13.30;11.77;;;;;;;;;;4138468;34;20166;-49
2020/12/13 02:08:43;;;;;;;13.48;11.98;;;;;;;;;;4150491;34;20142;-50
2020/12/13 02:11:10;;;;;;;12.50;11.30;;;;;;;;;;4150600;34;20119;-49
2020/12/13 02:13:38;;;;;;;14.63;12.00;;;;;;;;;;4150790;34;20433;-49
2020/12/13 02:16:05;;;;;;;12.65;11.45;;;;;;;;;;4150797;34;20135;-50
2020/12/13 02:18:31;;;;;;;13.82;11.25;;;;;;;;;;4138104;34;20176;-48
2020/12/13 02:20:57;;;;;;;12.32;11.12;;;;;;;;;;4150521;34;20451;-49
2020/12/13 02:23:23;;;;;;;12.37;11.18;;;;;;;;;;4150140;34;20158;-49
2020/12/13 02:25:49;;;;;;;12.73;11.43;;;;;;;;;;4150554;34;20207;-50
2020/12/13 02:28:15;;;;;;;15.38;13.55;;;;;;;;;;4150434;34;20119;-49
2020/12/13 02:30:41;;;;;;;11.85;10.65;;;;;;;;;;4150377;34;20515;-49
2020/12/13 02:33:07;;;;;;;13.05;11.73;;;;;;;;;;4150471;34;20123;-49
2020/12/13 02:35:33;;;;;;;13.40;12.00;;;;;;;;;;4150529;34;20533;-49
2020/12/13 02:37:59;;;;;;;12.40;11.12;;;;;;;;;;4150352;34;20131;-49
2020/12/13 02:40:25;;;;;;;12.20;10.93;;;;;;;;;;4150316;34;20550;-51
2020/12/13 02:42:51;;;;;;;12.32;11.12;;;;;;;;;;4150328;34;20123;-52
2020/12/13 02:45:17;;;;;;;13.43;12.02;;;;;;;;;;4150320;34;20398;-50
2020/12/13 02:47:42;;;;;;;12.48;10.82;;;;;;;;;;4150193;34;20188;-49
2020/12/13 02:50:08;;;;;;;13.18;11.88;;;;;;;;;;4150252;34;20106;-49
2020/12/13 02:52:34;;;;;;;13.32;11.98;;;;;;;;;;4150331;34;20099;-49
2020/12/13 02:55:00;;;;;;;12.65;11.35;;;;;;;;;;4150577;34;20142;-50
2020/12/13 02:57:26;;;;;;;13.38;11.98;;;;;;;;;;4150214;34;20544;-53
2020/12/13 02:59:52;;;;;;;13.32;11.93;;;;;;;;;;4150297;34;20158;-49
2020/12/13 03:02:18;;;;;;;13.82;12.25;;;;;;;;;;4150163;34;20205;-50
2020/12/13 03:04:43;;;;;;;14.65;12.30;;;;;;;;;;4150067;34;20218;-49
2020/12/13 03:07:09;;;;;;;13.70;12.37;;;;;;;;;;4137539;34;20115;-51
2020/12/13 03:09:36;;;;;;;13.18;11.80;;;;;;;;;;4149974;34;20138;-49
2020/12/13 03:12:03;;;;;;;15.27;12.07;;;;;;;;;;4150117;34;20100;-49
2020/12/13 03:14:29;;;;;;;13.62;12.27;;;;;;;;;;4149956;34;20606;-50
2020/12/13 03:16:55;;;;;;;13.75;12.30;;;;;;;;;;4150103;34;20227;-49
2020/12/13 03:19:21;;;;;;;13.93;12.50;;;;;;;;;;4149869;34;20095;-50
2020/12/13 03:21:47;;;;;;;13.60;11.85;;;;;;;;;;4150052;34;20111;-49
2020/12/13 03:24:13;;;;;;;13.60;11.75;;;;;;;;;;4150160;34;20135;-49
2020/12/13 03:26:39;;;;;;;13.15;11.15;;;;;;;;;;4150249;34;20087;-49
2020/12/13 03:29:04;;;;;;;14.27;12.80;;;;;;;;;;4149790;34;20122;-50
2020/12/13 03:31:30;;;;;;;13.20;11.77;;;;;;;;;;4149921;34;20142;-52
2020/12/13 03:33:56;;;;;;;12.93;11.55;;;;;;;;;;4148961;34;20225;-49
2020/12/13 03:36:22;;;;;;;12.57;11.38;;;;;;;;;;4149932;34;20123;-50
2020/12/13 03:38:48;;;;;;;14.32;12.35;;;;;;;;;;4149907;34;20125;-49
2020/12/13 03:41:14;;;;;;;14.65;12.65;;;;;;;;;;4149873;34;20533;-50
2020/12/13 03:43:40;;;;;;;14.15;12.65;;;;;;;;;;4149757;34;20103;-49
2020/12/13 03:46:05;;;;;;;13.62;12.25;;;;;;;;;;4149770;34;20562;-52
2020/12/13 03:48:31;;;;;;;13.80;12.05;;;;;;;;;;4149759;34;20122;-53
2020/12/13 03:50:57;;;;;;;13.32;11.95;;;;;;;;;;4149738;34;20273;-50
2020/12/13 03:53:23;;;;;;;13.68;12.27;;;;;;;;;;4149762;34;20616;-50
2020/12/13 03:55:49;;;;;;;12.85;11.55;;;;;;;;;;4149683;34;20204;-49
2020/12/13 03:58:15;;;;;;;13.18;11.43;;;;;;;;;;4149820;34;20119;-49
2020/12/13 04:00:40;;;;;;;13.38;11.95;;;;;;;;;;4149726;34;20134;-50
2020/12/13 04:03:07;;;;;;;13.48;12.07;;;;;;;;;;4149449;34;20107;-53
2020/12/13 04:05:33;;;;;;;13.23;12.00;;;;;;;;;;4149343;34;20111;-50
2020/12/13 04:07:59;;;;;;;13.82;12.43;;;;;;;;;;4149419;34;20136;-52
2020/12/13 04:10:25;;;;;;;13.57;12.18;;;;;;;;;;4149486;34;20111;-50
2020/12/13 04:12:51;;;;;;;13.57;12.05;;;;;;;;;;4149659;34;20127;-49
2020/12/13 04:15:17;;;;;;;13.45;11.88;;;;;;;;;;4149376;34;20642;-53
2020/12/13 04:17:44;;;;;;;13.55;12.15;;;;;;;;;;4137035;34;20115;-52
2020/12/13 04:20:10;;;;;;;13.20;11.82;;;;;;;;;;4149270;34;20180;-50
2020/12/13 04:22:36;;;;;;;12.93;11.70;;;;;;;;;;4149617;34;20131;-51
2020/12/13 04:25:03;;;;;;;14.38;12.68;;;;;;;;;;4149351;34;20138;-52
2020/12/13 04:27:29;;;;;;;13.13;11.55;;;;;;;;;;4149377;34;20096;-52
2020/12/13 04:29:55;;;;;;;14.05;12.55;;;;;;;;;;4149551;34;20225;-50
2020/12/13 04:32:21;;;;;;;14.63;12.50;;;;;;;;;;4149306;34;20119;-53
2020/12/13 04:34:48;;;;;;;13.65;12.35;;;;;;;;;;4149406;34;20103;-52
2020/12/13 04:37:14;;;;;;;13.40;12.00;;;;;;;;;;4149285;34;20602;-49
2020/12/13 04:39:40;;;;;;;15.32;13.73;;;;;;;;;;4148888;34;20100;-51
2020/12/13 04:42:06;;;;;;;14.70;12.45;;;;;;;;;;4149125;34;20182;-50
2020/12/13 04:44:32;;;;;;;13.88;12.48;;;;;;;;;;4148989;34;20191;-49
2020/12/13 04:47:02;;;;;;;13.95;12.65;;;;;;;;;;4127823;34;20106;-50
2020/12/13 04:49:28;;;;;;;13.45;12.15;;;;;;;;;;4151248;34;20465;-49
2020/12/13 04:51:53;;;;;;;15.40;13.95;;;;;;;;;;4127871;34;20126;-53
2020/12/13 04:54:21;;;;;;;14.02;12.63;;;;;;;;;;4127653;34;20123;-49
2020/12/13 04:56:48;;;;;;;15.02;12.68;;;;;;;;;;4151209;34;20142;-49
2020/12/13 04:59:14;;;;;;;13.82;12.30;;;;;;;;;;4138510;34;20206;-52
2020/12/13 05:01:40;;;;;;;13.90;12.57;;;;;;;;;;4127429;34;20484;-52
2020/12/13 05:04:06;;;;;;;13.30;11.95;;;;;;;;;;4150850;34;20551;-49
2020/12/13 05:06:32;;;;;;;15.10;12.50;;;;;;;;;;4151029;34;20111;-53
2020/12/13 05:08:58;;;;;;;13.88;12.57;;;;;;;;;;4127286;34;20115;-50
2020/12/13 05:11:23;;;;;;;14.75;13.25;;;;;;;;;;4151367;34;20114;-50
2020/12/13 05:13:49;;;;;;;13.15;11.90;;;;;;;;;;4138538;34;20130;-52
2020/12/13 05:16:15;;;;;;;15.80;13.70;;;;;;;;;;4151076;34;20151;-52
2020/12/13 05:18:41;;;;;;;15.85;14.15;;;;;;;;;;4150861;34;20119;-49
2020/12/13 05:21:07;;;;;;;16.58;14.87;;;;;;;;;;4151017;34;20199;-48
2020/12/13 05:23:33;;;;;;;19.98;17.92;;;;;;;;;;4150947;34;20107;-51
2020/12/13 05:25:59;;;;;;;21.30;18.05;;;;;;;;;;4150906;34;20114;-50
2020/12/13 05:28:25;;;;;;;21.20;19.00;;;;;;;;;;4150982;34;20107;-50
2020/12/13 05:30:52;;;;;;;22.62;20.27;;;;;;;;;;4150861;34;20115;-51
2020/12/13 05:36:02;;;;;;;26.37;23.67;;;;;;;;;;4150873;34;20182;-53
2020/12/13 05:38:36;;;;;;;25.35;21.67;;;;;;;;;;4138598;34;20114;-48
2020/12/13 05:41:03;;;;;;;25.67;23.17;;;;;;;;;;4151050;34;20099;-50
2020/12/13 05:43:32;;;;;;;25.77;23.20;;;;;;;;;;4138205;34;20134;-52
2020/12/13 05:51:05;;;;;;;41.37;34.22;;;;;;;;;;4150682;34;20449;-49
2020/12/13 05:53:31;;;;;;;26.87;24.05;;;;;;;;;;4138983;34;20516;-49
2020/12/13 05:55:57;;;;;;;36.47;32.33;;;;;;;;;;4150636;34;20133;-51
2020/12/13 05:58:26;;;;;;;30.70;27.67;;;;;;;;;;4149981;34;20111;-51
2020/12/13 06:00:56;;;;;;;19.15;17.25;;;;;;;;;;4150698;34;20167;-50
2020/12/13 06:03:31;;;;;;;17.80;16.00;;;;;;;;;;4150631;34;20123;-53
2020/12/13 06:06:07;;;;;;;19.12;15.70;;;;;;;;;;4150417;34;20219;-52
2020/12/13 06:09:04;;;;;;;16.80;14.68;;;;;;;;;;4150489;34;20135;-51
2020/12/13 06:11:34;;;;;;;19.40;17.50;;;;;;;;;;4143944;34;20095;-52
2020/12/13 06:13:59;;;;;;;24.48;19.62;;;;;;;;;;4150521;34;20634;-52
2020/12/13 06:16:25;;;;;;;24.33;21.83;;;;;;;;;;4126944;34;20111;-53
2020/12/13 06:18:51;;;;;;;23.25;20.73;;;;;;;;;;4126788;34;20111;-50
2020/12/13 06:21:17;;;;;;;27.17;24.40;;;;;;;;;;4138052;34;20277;-51
2020/12/13 06:23:45;;;;;;;25.67;23.00;;;;;;;;;;4150429;34;20535;-51
2020/12/13 06:26:11;;;;;;;30.40;24.60;;;;;;;;;;4137990;34;20110;-51
2020/12/13 06:28:37;;;;;;;28.20;25.17;;;;;;;;;;4137801;34;20111;-50
2020/12/13 06:31:03;;;;;;;33.65;28.00;;;;;;;;;;4150610;34;20104;-52
2020/12/13 06:33:39;;;;;;;32.83;28.55;;;;;;;;;;4137940;34;20139;-52
2020/12/13 06:36:06;;;;;;;;;;;;;;;;;;4150740;34;20123;-50
2020/12/13 06:38:32;;;;;;;38.58;30.27;;;;;;;;;;4150415;34;19971;-50
2020/12/13 06:41:13;;;;;;;38.10;30.50;;;;;;;;;;4126711;34;20095;-50
2020/12/13 06:43:40;;;;;;;38.38;29.75;;;;;;;;;;4137757;34;20114;-52
2020/12/13 06:46:13;;;;;;;36.17;29.40;;;;;;;;;;4150419;34;20095;-52
2020/12/13 06:48:41;;;;;;;33.92;26.95;;;;;;;;;;4137828;34;20128;-52
2020/12/13 06:51:09;;;;;;;34.92;30.15;;;;;;;;;;4126878;34;20207;-53
2020/12/13 06:53:35;;;;;;;31.42;26.60;;;;;;;;;;4150323;34;20104;-51
2020/12/13 06:56:11;;;;;;;32.95;26.23;;;;;;;;;;4150156;34;20540;-52
2020/12/13 06:59:00;;;;;;;33.05;28.35;;;;;;;;;;4127492;34;20211;-53
2020/12/13 07:01:32;;;;;;;28.15;21.52;;;;;;;;;;4150050;34;20114;-51
2020/12/13 07:04:24;;;;;;;23.15;20.10;;;;;;;;;;4149952;34;20212;-54
2020/12/13 07:07:18;;;;;;;24.33;20.75;;;;;;;;;;4149947;34;20563;-50
2020/12/13 07:09:44;;;;;;;26.75;21.12;;;;;;;;;;4150173;34;20533;-49
2020/12/13 07:12:10;;;;;;;26.00;21.08;;;;;;;;;;4126696;34;20208;-52
2020/12/13 07:14:38;;;;;;;26.27;21.55;;;;;;;;;;4149830;34;20113;-50
2020/12/13 07:17:07;;;;;;;28.02;22.48;;;;;;;;;;4149953;34;20107;-51
2020/12/13 07:19:34;;;;;;;27.62;23.42;;;;;;;;;;4149681;34;20110;-51
2020/12/13 07:22:18;;;;;;;30.05;23.00;;;;;;;;;;4150213;34;20126;-54
2020/12/13 07:24:44;;;;;;;29.35;23.58;;;;;;;;;;4149840;34;20640;-53
2020/12/13 07:27:10;;;;;;;30.17;24.40;;;;;;;;;;4149957;34;20122;-49
2020/12/13 07:29:36;;;;;;;28.30;24.52;;;;;;;;;;4149937;34;20447;-49
2020/12/13 07:32:03;;;;;;;35.35;27.75;;;;;;;;;;4149947;34;20118;-52
2020/12/13 07:34:29;;;;;;;36.40;27.62;;;;;;;;;;4149923;34;20130;-56
2020/12/13 07:36:55;;;;;;;32.53;26.23;;;;;;;;;;4150081;34;20121;-54
2020/12/13 07:39:22;;;;;;;33.67;27.48;;;;;;;;;;4150080;34;20131;-50
2020/12/13 07:41:48;;;;;;;34.53;28.42;;;;;;;;;;4137334;34;20483;-50
2020/12/13 07:44:18;;;;;;;41.88;29.27;;;;;;;;;;4150183;34;20122;-50
2020/12/13 07:46:44;;;;;;;34.90;28.55;;;;;;;;;;4149937;34;20123;-53
2020/12/13 07:49:10;;;;;;;36.35;28.10;;;;;;;;;;4149486;34;20142;-51
2020/12/13 07:51:38;;;;;;;39.13;28.70;;;;;;;;;;4149491;34;20436;-50
2020/12/13 07:54:23;;;;;;;38.13;29.90;;;;;;;;;;4149583;34;20139;-52
2020/12/13 07:56:56;;;;;;;40.38;29.25;;;;;;;;;;4149428;34;20115;-50
2020/12/13 07:59:26;;;;;;;42.50;30.17;;;;;;;;;;4149596;34;20123;-54
2020/12/13 08:01:53;;;;;;;39.35;30.23;;;;;;;;;;4149780;34;20143;-53
2020/12/13 08:04:35;;;;;;;37.22;29.30;;;;;;;;;;4149481;34;20104;-53
2020/12/13 08:07:03;;;;;;;38.17;29.33;;;;;;;;;;4149474;34;20464;-51
2020/12/13 08:09:29;;;;;;;37.72;28.10;;;;;;;;;;4149288;34;20167;-51
2020/12/13 08:11:55;;;;;;;38.53;29.10;;;;;;;;;;4149511;34;20141;-51
2020/12/13 08:14:25;;;;;;;35.83;27.00;;;;;;;;;;4149324;34;20455;-52
2020/12/13 08:16:55;;;;;;;32.42;27.27;;;;;;;;;;4149396;34;20107;-53
2020/12/13 08:19:26;;;;;;;33.95;26.80;;;;;;;;;;4149595;34;20119;-50
2020/12/13 08:22:02;;;;;;;32.17;24.60;;;;;;;;;;4151454;34;20482;-51
2020/12/13 08:24:31;;;;;;;31.52;25.67;;;;;;;;;;4151415;34;20123;-54
2020/12/13 08:27:00;;;;;;;27.55;24.33;;;;;;;;;;4138979;34;20523;-51
2020/12/13 08:29:28;;;;;;;32.95;25.45;;;;;;;;;;4138667;34;20119;-51
2020/12/13 08:31:54;;;;;;;32.00;27.33;;;;;;;;;;4139109;34;20216;-50
2020/12/13 08:34:30;;;;;;;29.92;25.20;;;;;;;;;;4138777;34;20474;-50
2020/12/13 08:36:59;;;;;;;28.85;23.58;;;;;;;;;;4151261;34;20095;-53
2020/12/13 08:39:27;;;;;;;25.00;21.52;;;;;;;;;;4151154;34;20146;-57
2020/12/13 08:41:53;;;;;;;26.37;22.02;;;;;;;;;;4151326;34;20126;-53
2020/12/13 08:44:30;;;;;;;26.83;22.52;;;;;;;;;;4142595;34;20535;-54
2020/12/13 08:46:57;;;;;;;23.90;20.98;;;;;;;;;;4151173;34;20219;-50
2020/12/13 08:49:27;;;;;;;23.90;19.92;;;;;;;;;;4140403;34;20116;-50
2020/12/13 08:51:53;;;;;;;24.67;20.83;;;;;;;;;;4126939;34;20099;-53
2020/12/13 08:54:23;;;;;;;26.65;21.60;;;;;;;;;;4141067;34;20110;-50
2020/12/13 08:57:03;;;;;;;23.73;21.23;;;;;;;;;;4141149;34;20114;-52
2020/12/13 08:59:34;;;;;;;25.50;21.60;;;;;;;;;;4138007;34;20131;-49
2020/12/13 09:02:03;;;;;;;25.05;22.30;;;;;;;;;;4147860;34;20437;-55
2020/12/13 09:04:30;;;;;;;25.75;22.08;;;;;;;;;;4150787;34;20138;-52
2020/12/13 09:06:58;;;;;;;26.00;20.02;;;;;;;;;;4150530;34;20131;-53
2020/12/13 09:09:31;;;;;;;26.83;22.27;;;;;;;;;;4151009;34;20453;-52
2020/12/13 09:11:58;;;;;;;25.17;20.30;;;;;;;;;;4147172;34;20545;-57
2020/12/13 09:14:29;;;;;;;26.25;21.42;;;;;;;;;;4150804;34;20111;-53
2020/12/13 09:16:54;;;;;;;25.73;22.58;;;;;;;;;;4148873;34;20219;-57
2020/12/13 09:19:20;;;;;;;24.10;21.25;;;;;;;;;;4150840;34;20630;-55
2020/12/13 09:22:00;;;;;;;22.62;20.23;;;;;;;;;;4138406;34;20131;-53
2020/12/13 09:24:32;;;;;;;24.27;21.00;;;;;;;;;;4137776;34;20465;-58
2020/12/13 09:27:01;;;;;;;22.67;20.27;;;;;;;;;;4137301;34;20517;-54
2020/12/13 09:29:28;;;;;;;22.02;19.70;;;;;;;;;;4137377;34;20114;-51
2020/12/13 09:31:54;;;;;;;20.37;18.27;;;;;;;;;;4136433;34;20256;-55
2020/12/13 09:34:21;;;;;;;23.87;19.85;;;;;;;;;;4137050;34;20195;-57
2020/12/13 09:36:47;;;;;;;20.15;18.02;;;;;;;;;;4137259;34;20107;-53
2020/12/13 09:39:13;;;;;;;21.52;18.58;;;;;;;;;;4137072;34;20115;-54
2020/12/13 09:41:39;;;;;;;23.87;20.88;;;;;;;;;;4137226;34;20459;-51
2020/12/13 09:44:05;;;;;;;22.58;20.15;;;;;;;;;;4137162;34;20130;-56
2020/12/13 09:46:32;;;;;;;22.25;19.95;;;;;;;;;;4137088;34;20126;-51
2020/12/13 09:49:01;;;;;;;22.25;19.73;;;;;;;;;;4137241;34;20561;-56
2020/12/13 09:51:26;;;;;;;28.95;23.75;;;;;;;;;;4142146;34;20106;-53
2020/12/13 09:53:52;;;;;;;31.25;27.05;;;;;;;;;;4144955;34;20527;-57
2020/12/13 09:56:18;;;;;;;35.35;27.65;;;;;;;;;;4149880;34;20474;-57
2020/12/13 09:58:45;;;;;;;34.92;26.58;;;;;;;;;;4150073;34;20104;-55
2020/12/13 10:01:12;;;;;;;32.45;28.08;;;;;;;;;;4146340;34;20148;-53
2020/12/13 10:03:40;;;;;;;51.15;39.58;;;;;;;;;;4150380;34;20205;-53
2020/12/13 10:11:26;;;;;;;62.97;46.40;;;;;;;;;;4150592;34;20145;-57
2020/12/13 10:13:52;;;;;;;59.72;46.55;;;;;;;;;;4126954;34;20199;-55
2020/12/13 10:16:18;;;;;;;62.60;47.30;;;;;;;;;;4150360;34;20118;-57
2020/12/13 10:18:44;;;;;;;68.35;48.90;;;;;;;;;;4150461;34;20185;-58
2020/12/13 10:21:10;;;;;;;66.10;47.95;;;;;;;;;;4150328;34;20123;-58
2020/12/13 10:23:41;;;;;;;62.17;45.50;;;;;;;;;;4151126;34;20119;-58
2020/12/13 10:26:07;;;;;;;60.33;43.25;;;;;;;;;;4129613;34;20095;-59
2020/12/13 10:28:33;;;;;;;56.60;40.95;;;;;;;;;;4136800;34;20122;-59
2020/12/13 10:30:59;;;;;;;54.55;41.58;;;;;;;;;;4136878;34;20532;-57
2020/12/13 10:33:25;;;;;;;58.35;43.90;;;;;;;;;;4136915;34;20119;-59
2020/12/13 10:35:51;;;;;;;58.55;42.95;;;;;;;;;;4136874;34;20541;-56
2020/12/13 10:38:17;;;;;;;56.08;43.08;;;;;;;;;;4137041;34;20512;-60
2020/12/13 10:40:43;;;;;;;60.65;42.62;;;;;;;;;;4136703;34;20136;-59
2020/12/13 10:43:09;;;;;;;55.63;43.00;;;;;;;;;;4136586;34;20155;-52
2020/12/13 10:45:35;;;;;;;58.15;44.53;;;;;;;;;;4136771;34;20689;-53
2020/12/13 10:48:01;;;;;;;57.92;40.75;;;;;;;;;;4136899;34;20115;-56
2020/12/13 10:50:27;;;;;;;58.08;41.75;;;;;;;;;;4136895;34;20107;-53
2020/12/13 10:52:53;;;;;;;56.65;41.65;;;;;;;;;;4143782;34;20106;-50
2020/12/13 10:55:21;;;;;;;54.97;41.03;;;;;;;;;;4150161;34;20130;-56
2020/12/13 10:57:47;;;;;;;57.67;41.28;;;;;;;;;;4149284;34;20170;-54
2020/12/13 11:00:13;;;;;;;50.63;38.78;;;;;;;;;;4150301;34;20447;-56
2020/12/13 11:02:39;;;;;;;52.13;40.50;;;;;;;;;;4150329;34;20125;-56
2020/12/13 11:05:05;;;;;;;58.47;44.47;;;;;;;;;;4146219;34;20126;-58
2020/12/13 11:07:31;;;;;;;66.22;47.30;;;;;;;;;;4149944;34;20107;-58
2020/12/13 11:09:56;;;;;;;54.67;44.65;;;;;;;;;;4150026;34;20229;-57
2020/12/13 11:12:22;;;;;;;57.10;46.33;;;;;;;;;;4149811;34;20196;-57
2020/12/13 11:14:48;;;;;;;54.30;42.50;;;;;;;;;;4149731;34;20208;-57
2020/12/13 11:17:14;;;;;;;51.42;40.65;;;;;;;;;;4149973;34;20445;-59
2020/12/13 11:19:40;;;;;;;50.45;35.42;;;;;;;;;;4149884;34;20126;-56
2020/12/13 11:22:06;;;;;;;45.78;33.72;;;;;;;;;;4149840;34;20136;-51
2020/12/13 11:24:32;;;;;;;47.65;37.03;;;;;;;;;;4149580;34;20118;-56
2020/12/13 11:26:58;;;;;;;39.25;32.33;;;;;;;;;;4142753;34;20138;-57
2020/12/13 11:29:24;;;;;;;39.15;30.80;;;;;;;;;;4136288;34;20116;-56
2020/12/13 11:31:51;;;;;;;35.72;27.45;;;;;;;;;;4136433;34;20123;-57
2020/12/13 11:34:17;;;;;;;40.63;33.60;;;;;;;;;;4135295;34;20107;-57
2020/12/13 11:36:43;;;;;;;34.03;27.17;;;;;;;;;;4136427;34;20186;-56
2020/12/13 11:39:09;;;;;;;34.85;28.62;;;;;;;;;;4136211;34;20102;-54
2020/12/13 11:41:35;;;;;;;34.45;29.67;;;;;;;;;;4136302;34;20551;-50
2020/12/13 11:44:01;;;;;;;40.92;33.08;;;;;;;;;;4136122;34;20134;-52
2020/12/13 11:46:27;;;;;;;50.97;43.10;;;;;;;;;;4136438;34;20147;-53
2020/12/13 11:48:53;;;;;;;41.05;34.15;;;;;;;;;;4136372;34;20224;-58
2020/12/13 11:51:19;;;;;;;43.28;36.28;;;;;;;;;;4136274;34;20121;-57
2020/12/13 11:53:45;;;;;;;51.22;41.85;;;;;;;;;;4147886;34;20130;-53
2020/12/13 11:56:11;;;;;;;68.18;51.67;;;;;;;;;;4151190;34;20106;-57
2020/12/13 11:58:37;;;;;;;56.75;45.63;;;;;;;;;;4151648;34;20114;-56
2020/12/13 12:01:06;;;;;;;52.78;44.42;;;;;;;;;;4151744;34;20102;-59
2020/12/13 12:03:31;;;;;;;58.00;47.17;;;;;;;;;;4151562;34;20149;-58
2020/12/13 12:05:57;;;;;;;56.00;44.95;;;;;;;;;;4151684;34;20111;-58
2020/12/13 12:08:23;;;;;;;60.12;46.80;;;;;;;;;;4151641;34;20230;-58
2020/12/13 12:10:49;;;;;;;58.60;45.30;;;;;;;;;;4151468;34;20139;-56
2020/12/13 12:13:15;;;;;;;68.05;49.65;;;;;;;;;;4151550;34;20110;-56
2020/12/13 12:15:41;;;;;;;62.85;47.62;;;;;;;;;;4151692;34;20140;-56
2020/12/13 12:18:06;;;;;;;60.00;42.62;;;;;;;;;;4124804;34;20134;-53
2020/12/13 12:20:32;;;;;;;64.40;46.80;;;;;;;;;;4150982;34;20113;-56
2020/12/13 12:22:58;;;;;;;63.40;47.22;;;;;;;;;;4140088;34;20132;-56
2020/12/13 12:25:24;;;;;;;72.97;49.90;;;;;;;;;;4137671;34;20131;-56
2020/12/13 12:27:50;;;;;;;79.85;53.80;;;;;;;;;;4137705;34;20547;-57
2020/12/13 12:30:17;;;;;;;50.95;39.35;;;;;;;;;;4137828;34;20128;-56
2020/12/13 12:32:43;;;;;;;56.10;40.38;;;;;;;;;;4137684;34;20130;-53
2020/12/13 12:35:08;;;;;;;40.05;33.05;;;;;;;;;;4137840;34;20132;-54
2020/12/13 12:37:34;;;;;;;56.72;33.80;;;;;;;;;;4137738;34;20220;-53
2020/12/13 12:40:00;;;;;;;50.40;36.03;;;;;;;;;;4137907;34;20437;-53
2020/12/13 12:42:27;;;;;;;66.05;44.38;;;;;;;;;;4137224;34;20098;-59
2020/12/13 12:44:53;;;;;;;62.20;42.40;;;;;;;;;;4125236;34;20142;-57
2020/12/13 12:47:19;;;;;;;60.95;42.10;;;;;;;;;;4137547;34;20460;-58
2020/12/13 12:49:45;;;;;;;61.97;42.72;;;;;;;;;;4137502;34;20231;-56
2020/12/13 12:52:11;;;;;;;65.57;42.50;;;;;;;;;;4140292;34;20138;-57
2020/12/13 12:54:37;;;;;;;66.00;46.55;;;;;;;;;;4150981;34;20217;-56
2020/12/13 12:57:03;;;;;;;81.75;55.20;;;;;;;;;;4150958;34;20110;-55
2020/12/13 12:59:44;;;;;;;68.35;50.03;;;;;;;;;;4150883;34;20139;-57
2020/12/13 13:02:10;;;;;;;99.05;68.57;;;;;;;;;;4150808;34;20118;-57
2020/12/13 13:04:43;;;;;;;114.00;78.28;;;;;;;;;;4150958;34;20228;-56
2020/12/13 13:07:31;;;;;;;106.00;78.25;;;;;;;;;;4151000;34;20123;-57
2020/12/13 13:10:09;;;;;;;100.07;68.57;;;;;;;;;;4150904;34;20206;-57
2020/12/13 13:12:36;;;;;;;73.72;51.20;;;;;;;;;;4150831;34;20095;-55
2020/12/13 13:15:07;;;;;;;39.65;30.52;;;;;;;;;;4150988;34;20616;-56
2020/12/13 13:17:35;;;;;;;42.45;31.35;;;;;;;;;;4150834;34;20129;-58
2020/12/13 13:20:03;;;;;;;40.03;31.50;;;;;;;;;;4150727;34;20087;-53
2020/12/13 13:22:29;;;;;;;46.35;34.42;;;;;;;;;;4150468;34;20245;-58
2020/12/13 13:24:55;;;;;;;41.37;31.25;;;;;;;;;;4150716;34;20107;-57
2020/12/13 13:27:21;;;;;;;44.72;33.00;;;;;;;;;;4150587;34;20183;-57
2020/12/13 13:29:51;;;;;;;53.30;42.10;;;;;;;;;;4150173;34;20123;-58
2020/12/13 13:32:17;;;;;;;53.63;38.33;;;;;;;;;;4150335;34;20138;-58
2020/12/13 13:34:43;;;;;;;48.15;35.97;;;;;;;;;;4138298;34;20175;-59
2020/12/13 13:37:10;;;;;;;50.50;40.03;;;;;;;;;;4150574;34;20106;-58
2020/12/13 13:39:36;;;;;;;55.45;40.55;;;;;;;;;;4150136;34;20525;-57
2020/12/13 13:42:04;;;;;;;56.33;41.08;;;;;;;;;;4149991;34;20559;-58
2020/12/13 13:44:44;;;;;;;58.35;44.47;;;;;;;;;;4150359;34;20536;-57
2020/12/13 13:48:14;;;;;;;47.90;38.07;;;;;;;;;;4134679;34;20524;-59
2020/12/13 13:50:07;;;;;;;47.35;38.60;;;;;;;;;;4122929;34;20613;-56
2020/12/13 13:52:33;;;;;;;53.35;40.63;;;;;;;;;;4140751;34;20175;-59
2020/12/13 13:55:21;;;;;;;48.65;40.50;;;;;;;;;;4150549;34;20118;-57
2020/12/13 13:57:47;;;;;;;62.80;48.38;;;;;;;;;;4149564;34;20195;-60
2020/12/13 14:00:13;;;;;;;55.83;41.22;;;;;;;;;;4149908;34;20103;-60
2020/12/13 14:02:39;;;;;;;54.28;42.47;;;;;;;;;;4150073;34;20118;-58
2020/12/13 14:05:08;;;;;;;58.55;46.50;;;;;;;;;;4149056;34;20095;-56
2020/12/13 14:07:56;;;;;;;59.17;46.22;;;;;;;;;;4150478;34;20106;-57
2020/12/13 14:10:22;;;;;;;56.05;43.08;;;;;;;;;;4150298;34;20437;-59
2020/12/13 14:12:47;;;;;;;60.60;46.08;;;;;;;;;;4150014;34;20196;-58
2020/12/13 14:15:13;;;;;;;62.80;45.38;;;;;;;;;;4150467;34;20129;-60
2020/12/13 14:17:39;;;;;;;60.88;47.47;;;;;;;;;;4137072;34;20544;-58
2020/12/13 14:20:05;;;;;;;57.15;45.47;;;;;;;;;;4150188;34;20121;-56
2020/12/13 14:22:31;;;;;;;51.50;45.20;;;;;;;;;;4149115;34;20131;-57
2020/12/13 14:24:57;;;;;;;50.65;39.03;;;;;;;;;;4150601;34;20146;-57
2020/12/13 14:27:23;;;;;;;41.70;34.67;;;;;;;;;;4150279;34;20456;-58
2020/12/13 14:29:49;;;;;;;53.10;41.53;;;;;;;;;;4150494;34;20224;-56
2020/12/13 14:32:15;;;;;;;45.22;38.70;;;;;;;;;;4149671;34;20128;-55
2020/12/13 14:34:41;;;;;;;42.75;34.47;;;;;;;;;;4150341;34;20114;-56
2020/12/13 14:37:07;;;;;;;40.15;33.45;;;;;;;;;;4150352;34;20119;-58
2020/12/13 14:39:33;;;;;;;49.38;36.28;;;;;;;;;;4150165;34;20242;-58